Burns Pinion Ridge Reserve, California Weather observations

Data are for 10 minute period ending at time listed.
 Day   Time   Solar   Ave.   Ave.  Ave.  Vector  Max.   Baro.   Total    
  of    of     Rad.   Air    Rel.  Wind   Wind   Wind  Press.  Precip.   
Year   Day            Temp.  Hum.  Speed  Dir.   Gust                    
2014   (PST)  Kw/m2    F      %     mph   deg.    mph    mb.     in.     
-------------------------------------------------------------------------
 106   10:10   0.93   77.2    11    2.1   199     6.5   871.7    0.00 
 106   10:20   0.94   77.2    11    3.9   199     7.5   871.7    0.00 
 106   10:30   0.96   76.5    11    1.6   126     4.7   871.7    0.00 
 106   10:40   0.97   78.1    11    2.2   165     6.4   871.6    0.00 
 106   10:50   0.98   77.6    11    2.8    48     8.9   871.6    0.00 
 106   11:00   0.99   76.7    12    3.7    53     7.6   871.6    0.00 
 106   11:10   1.00   77.0    12    2.7   290     7.5   871.5    0.00 
 106   11:20   1.01   77.7    11    4.9   136    11.3   871.4    0.00 
 106   11:30   1.01   78.4    11    5.9   140    10.8   871.3    0.00 
 106   11:40   1.01   78.5    12    6.5   131    14.7   871.2    0.00 
 106   11:50   1.01   78.5    11    5.8   117    11.8   871.0    0.00 
 106   12:00   0.98   78.5    12    5.8   113    16.2   871.0    0.00 
 106   12:10   1.01   78.7    12    6.5    85    12.9   870.9    0.00 
 106   12:20   1.01   78.4    11    4.3    60    10.3   870.8    0.00 
 106   12:30   0.99   78.7    12    5.4   121    14.0   870.7    0.00 
 106   12:40   0.99   79.7    12    4.7   171    12.9   870.8    0.00 
 106   12:50   0.98   79.2    12    5.2   189    13.2   870.6    0.00 
 106   13:00   0.97   79.2    12    7.2   161    15.1   870.6    0.00 
 106   13:10   0.95   78.4    12    6.6   200    14.4   870.5    0.00 
 106   13:20   0.94   78.5    12    6.7   195    16.4   870.5    0.00 
 106   13:30   0.92   78.3    12    6.8   210    15.6   870.5    0.00 
 106   13:40   0.90   78.9    12    6.1   213    12.1   870.5    0.00 
 106   13:50   0.88   79.0    12    6.0   174    11.6   870.4    0.00 
 106   14:00   0.85   79.0    12    7.3   218    14.4   870.4    0.00 
 106   14:10   0.83   78.2    12    6.3   202    12.3   870.2    0.00 
 106   14:20   0.80   78.8    12    6.4   192    13.5   870.2    0.00 
 106   14:30   0.77   79.3    12    5.6   190    13.4   870.1    0.00 
 106   14:40   0.75   78.7    12    7.5   198    14.2   870.0    0.00 
 106   14:50   0.72   79.6    12    5.4   188    13.2   870.0    0.00 
 106   15:00   0.69   80.8    12    5.4   174    17.3   869.9    0.00 
 106   15:10   0.65   79.5    12    7.0   221    13.0   869.9    0.00 
 106   15:20   0.62   79.4    12    6.4   221    11.6   869.8    0.00 
 106   15:30   0.59   78.2    13    6.8   219    12.1   869.8    0.00 
 106   15:40   0.55   78.2    13    6.6   194    13.2   869.8    0.00 
 106   15:50   0.52   79.6    12    4.2   205    13.7   869.7    0.00 
 106   16:00   0.48   78.8    13    6.7   206    12.9   869.7    0.00 
 106   16:10   0.44   78.6    13    5.0   197    13.1   869.8    0.00 
 106   16:20   0.40   78.0    13    5.5   204    13.9   869.7    0.00 
 106   16:30   0.36   78.1    14    6.4   206    13.2   869.7    0.00 
 106   16:40   0.32   77.1    14    5.3   192    12.8   869.6    0.00 
 106   16:50   0.28   77.1    15    6.3   195    14.1   869.6    0.00 
 106   17:00   0.24   75.8    16    6.6   198    13.4   869.6    0.00 
 106   17:10   0.21   75.6    16    6.2   204    11.5   869.6    0.00 
 106   17:20   0.17   75.7    16    5.8   202    10.8   869.6    0.00 
 106   17:30   0.14   74.5    17    5.8   197    11.7   869.6    0.00 
 106   17:40   0.10   73.6    17    5.8   199    14.0   869.7    0.00 
 106   17:50   0.07   72.8    18    7.2   214    13.2   869.8    0.00 
 106   18:00   0.04   71.5    20    8.7   212    13.2   869.8    0.00 
 106   18:10   0.01   70.5    20    6.9   216    11.6   869.8    0.00 
 106   18:20   0.00   70.0    20    6.5   219    11.6   869.8    0.00 
 106   18:30   0.00   69.7    20    7.5   215    12.9   869.8    0.00 
 106   18:40   0.00   69.4    20    7.1   210    11.5   869.8    0.00 
 106   18:50   0.00   69.0    21    6.2   210     9.5   869.9    0.00 
 106   19:00   0.00   68.8    22    6.5   210    10.8   870.0    0.00 
 106   19:10   0.00   68.1    23    5.1   205     8.7   870.0    0.00 
 106   19:20   0.00   68.0    23    5.1   218     8.6   870.1    0.00 
 106   19:30   0.00   67.9    23    6.0   205     9.2   870.1    0.00 
 106   19:40   0.00   67.6    24    5.2   205     7.8   870.2    0.00 
 106   19:50   0.00   67.3    24    4.8   204     6.9   870.3    0.00 
 106   20:00   0.00   67.0    25    4.9   202     7.5   870.3    0.00 
 106   20:10   0.00   66.9    25    4.7   209     7.5   870.5    0.00 
 106   20:20   0.00   66.3    25    6.0   211     9.2   870.5    0.00 
 106   20:30   0.00   67.3    24    6.8   210     8.9   870.5    0.00 
 106   20:40   0.00   66.8    25    5.1   216     7.7   870.6    0.00 
 106   20:50   0.00   66.2    26    4.1   223     6.9   870.7    0.00 
 106   21:00   0.00   64.1    28    1.9   276     3.4   870.8    0.00 
 106   21:10   0.00   61.3    30    1.8   258     3.3   870.9    0.00 
 106   21:20   0.00   59.6    32    3.0   258     6.2   870.9    0.00 
 106   21:30   0.00   59.2    32    1.9   235     4.2   870.8    0.00 
 106   21:40   0.00   59.8    32    3.4   203     5.1   870.9    0.00 
 106   21:50   0.00   62.5    29    5.7   203     8.5   870.9    0.00 
 106   22:00   0.00   64.7    27    4.5   194     7.6   871.0    0.00 
 106   22:10   0.00   63.6    27    4.3   193     6.7   871.1    0.00 
 106   22:20   0.00   64.0    27    5.4   204     7.5   871.1    0.00 
 106   22:30   0.00   64.4    27    5.2   209     7.4   871.0    0.00 
 106   22:40   0.00   64.1    27    4.4   221     8.1   871.0    0.00 
 106   22:50   0.00   64.2    27    4.9   215     8.7   871.1    0.00 
 106   23:00   0.00   64.3    25    4.5   221     9.0   871.2    0.00 
 106   23:10   0.00   64.5    24    5.2   222     9.4   871.2    0.00 
 106   23:20   0.00   65.0    23    5.8   213    13.9   871.2    0.00 
 106   23:30   0.00   65.0    23    6.0   218    11.5   871.4    0.00 
 106   23:40   0.00   64.7    24    6.0   211     9.7   871.4    0.00 
 106   23:50   0.00   64.3    25    5.1   209     9.6   871.5    0.00 
 107    0:00   0.00   64.1    26    6.5   197    12.2   871.5    0.00 
 107    0:10   0.00   63.5    26    6.3   199    13.7   871.5    0.00 
 107    0:20   0.00   63.6    26    6.1   208    11.5   871.5    0.00 
 107    0:30   0.00   63.8    26    8.2   212    12.8   871.5    0.00 
 107    0:40   0.00   64.4    25    7.3   206    12.5   871.5    0.00 
 107    0:50   0.00   63.6    26    5.6   200    12.4   871.5    0.00 
 107    1:00   0.00   63.2    26    5.3   206    10.1   871.4    0.00 
 107    1:10   0.00   63.8    25    8.0   209    12.3   871.4    0.00 
 107    1:20   0.00   63.8    25    6.6   208    10.5   871.4    0.00 
 107    1:30   0.00   63.4    26    5.3   207     9.6   871.4    0.00 
 107    1:40   0.00   63.4    25    5.9   208    11.3   871.4    0.00 
 107    1:50   0.00   63.6    24    6.1   215    10.5   871.4    0.00 
 107    2:00   0.00   63.4    24    5.5   207     8.6   871.3    0.00 
 107    2:10   0.00   63.0    24    4.8   212     7.7   871.4    0.00 
 107    2:20   0.00   62.9    24    5.2   210     8.0   871.3    0.00 
 107    2:30   0.00   62.8    24    4.9   213     7.3   871.3    0.00 
 107    2:40   0.00   62.5    25    4.6   205     6.9   871.3    0.00 
 107    2:50   0.00   61.8    26    4.5   200     7.9   871.2    0.00 
 107    3:00   0.00   62.4    24    6.8   208     9.6   871.1    0.00 
 107    3:10   0.00   62.9    24    6.9   207    10.1   871.0    0.00 
 107    3:20   0.00   62.4    25    5.0   199     9.2   871.0    0.00 
 107    3:30   0.00   61.5    26    3.9   189     6.9   871.0    0.00 
 107    3:40   0.00   61.0    26    5.2   200     7.9   871.0    0.00 
 107    3:50   0.00   61.6    26    6.8   204    10.1   871.0    0.00 
 107    4:00   0.00   61.6    27    7.1   211    10.4   870.9    0.00 
 107    4:10   0.00   61.2    29    6.3   210     9.0   870.9    0.00 
 107    4:20   0.00   61.2    30    7.8   207    11.1   870.9    0.00 
 107    4:30   0.00   61.3    31    7.2   211    11.1   870.9    0.00 
 107    4:40   0.00   60.8    32    6.3   212     9.5   871.0    0.00 
 107    4:50   0.00   60.5    32    4.1   220     8.6   871.0    0.00 
 107    5:00   0.00   58.5    33    4.0   220     6.1   871.1    0.00 
 107    5:10   0.00   58.3    34    4.2   220     6.3   871.2    0.00 
 107    5:20   0.01   58.8    33    4.0   218     5.8   871.3    0.00 
 107    5:30   0.01   58.4    33    3.0   229     5.3   871.4    0.00 
 107    5:40   0.02   58.5    33    4.6   221     6.9   871.6    0.00 
 107    5:50   0.03   60.0    30    5.6   214     7.1   871.7    0.00 
 107    6:00   0.03   61.2    30    7.0   203     8.9   871.8    0.00 
 107    6:10   0.10   62.2    29    7.3   203     9.6   871.9    0.00 
 107    6:20   0.17   64.4    27    5.8   202     9.3   872.1    0.00 
 107    6:30   0.20   64.9    27    5.6   200     9.6   872.2    0.00 
 107    6:40   0.24   65.0    28    5.9   194     8.4   872.4    0.00 
 107    6:50   0.28   65.4    27    5.7   186     8.3   872.4    0.00 
 107    7:00   0.32   66.3    26    5.4   187     8.6   872.4    0.00 
 107    7:10   0.36   66.6    26    5.5   183     9.3   872.6    0.00 
 107    7:20   0.41   66.3    26    6.4   182     9.9   872.7    0.00 
 107    7:30   0.42   65.3    28    7.2   185    10.2   872.8    0.00 
 107    7:40   0.45   65.4    29    6.7   187    10.2   872.8    0.00 
 107    7:50   0.50   64.7    30    7.7   189    11.4   872.9    0.00 
 107    8:00   0.52   64.0    32    8.8   190    13.4   873.0    0.00 
 107    8:10   0.57   64.6    32    7.5   190    12.1   873.1    0.00 
 107    8:20   0.61   64.5    34    7.8   192    11.7   873.1    0.00 
 107    8:30   0.70   64.9    34    7.0   198    11.5   873.2    0.00 
 107    8:40   0.67   65.8    32    7.9   202    11.9   873.4    0.00 
 107    8:50   0.71   65.0    33    7.8   204    12.9   873.6    0.00 
 107    9:00   0.76   64.0    33   10.2   211    17.9   873.9    0.00 
 107    9:10   0.74   64.7    32    8.3   197    14.1   873.9    0.00 
 107    9:20   0.79   65.5    31    8.1   201    15.7   874.0    0.00 
 107    9:30   0.89   67.0    30    5.9   193    10.8   874.0    0.00 
 107    9:40   0.76   68.6    28    6.6   204    12.1   874.0    0.00 
 107    9:50   0.74   66.7    30    6.7   219    12.0   874.1    0.00 
 107   10:00   0.87   67.9    28    6.5   200    14.2   874.1    0.00 

Return to Burns Pinion Ridge Reserve graphs page.


Western Regional Climate Center,wrcc@dri.edu